sensor_id;sensor_type;location;lat;lon;timestamp;P1;durP1;ratioP1;P2;durP2;ratioP2
74344;SDS011;62776;50.518;6.732;2022-12-10T00:01:32;35.30;;;31.25;;
74344;SDS011;62776;50.518;6.732;2022-12-10T00:04:19;32.42;;;29.13;;
74344;SDS011;62776;50.518;6.732;2022-12-10T00:07:06;32.63;;;29.15;;
74344;SDS011;62776;50.518;6.732;2022-12-10T00:09:52;31.02;;;27.80;;
74344;SDS011;62776;50.518;6.732;2022-12-10T00:12:38;27.60;;;24.80;;
74344;SDS011;62776;50.518;6.732;2022-12-10T00:15:24;25.83;;;23.38;;
74344;SDS011;62776;50.518;6.732;2022-12-10T00:18:10;25.45;;;22.75;;
74344;SDS011;62776;50.518;6.732;2022-12-10T00:20:56;26.65;;;24.15;;
74344;SDS011;62776;50.518;6.732;2022-12-10T00:23:42;25.75;;;23.25;;
74344;SDS011;62776;50.518;6.732;2022-12-10T00:26:30;25.00;;;22.50;;
74344;SDS011;62776;50.518;6.732;2022-12-10T00:29:21;26.20;;;23.60;;
74344;SDS011;62776;50.518;6.732;2022-12-10T00:32:07;26.70;;;24.10;;
74344;SDS011;62776;50.518;6.732;2022-12-10T00:34:54;27.75;;;25.10;;
74344;SDS011;62776;50.518;6.732;2022-12-10T00:37:40;28.25;;;25.45;;
74344;SDS011;62776;50.518;6.732;2022-12-10T00:40:26;28.73;;;25.83;;
74344;SDS011;62776;50.518;6.732;2022-12-10T00:43:12;30.10;;;26.85;;
74344;SDS011;62776;50.518;6.732;2022-12-10T00:45:59;32.85;;;29.55;;
74344;SDS011;62776;50.518;6.732;2022-12-10T00:48:45;39.00;;;31.88;;
74344;SDS011;62776;50.518;6.732;2022-12-10T00:51:31;33.63;;;30.13;;
74344;SDS011;62776;50.518;6.732;2022-12-10T00:54:17;33.22;;;29.38;;
74344;SDS011;62776;50.518;6.732;2022-12-10T00:57:03;33.50;;;29.85;;
74344;SDS011;62776;50.518;6.732;2022-12-10T00:59:50;42.38;;;34.95;;
74344;SDS011;62776;50.518;6.732;2022-12-10T01:02:36;33.35;;;29.80;;
74344;SDS011;62776;50.518;6.732;2022-12-10T01:05:22;32.92;;;29.50;;
74344;SDS011;62776;50.518;6.732;2022-12-10T01:08:09;34.00;;;30.25;;
74344;SDS011;62776;50.518;6.732;2022-12-10T01:10:56;33.47;;;29.95;;
74344;SDS011;62776;50.518;6.732;2022-12-10T01:13:42;38.63;;;31.05;;
74344;SDS011;62776;50.518;6.732;2022-12-10T01:16:29;34.00;;;30.42;;
74344;SDS011;62776;50.518;6.732;2022-12-10T01:19:15;31.77;;;28.50;;
74344;SDS011;62776;50.518;6.732;2022-12-10T01:22:02;35.25;;;30.90;;
74344;SDS011;62776;50.518;6.732;2022-12-10T01:24:48;36.72;;;30.30;;
74344;SDS011;62776;50.518;6.732;2022-12-10T01:27:34;34.00;;;30.23;;
74344;SDS011;62776;50.518;6.732;2022-12-10T01:30:20;32.13;;;28.85;;
74344;SDS011;62776;50.518;6.732;2022-12-10T01:33:06;34.15;;;30.33;;
74344;SDS011;62776;50.518;6.732;2022-12-10T01:35:52;35.13;;;30.65;;
74344;SDS011;62776;50.518;6.732;2022-12-10T01:38:38;35.95;;;32.03;;
74344;SDS011;62776;50.518;6.732;2022-12-10T01:41:28;42.67;;;34.47;;
74344;SDS011;62776;50.518;6.732;2022-12-10T01:47:01;40.17;;;33.10;;
74344;SDS011;62776;50.518;6.732;2022-12-10T01:49:47;36.60;;;31.13;;
74344;SDS011;62776;50.518;6.732;2022-12-10T01:52:34;34.67;;;29.13;;
74344;SDS011;62776;50.518;6.732;2022-12-10T01:58:28;38.80;;;29.58;;
74344;SDS011;62776;50.518;6.732;2022-12-10T02:07:39;41.28;;;31.10;;
74344;SDS011;62776;50.518;6.732;2022-12-10T02:11:08;43.85;;;32.10;;
74344;SDS011;62776;50.518;6.732;2022-12-10T02:14:13;42.10;;;30.88;;
74344;SDS011;62776;50.518;6.732;2022-12-10T02:17:14;41.83;;;31.55;;
74344;SDS011;62776;50.518;6.732;2022-12-10T02:23:27;41.17;;;31.08;;
74344;SDS011;62776;50.518;6.732;2022-12-10T02:29:24;37.38;;;28.77;;
74344;SDS011;62776;50.518;6.732;2022-12-10T02:32:14;39.97;;;30.48;;
74344;SDS011;62776;50.518;6.732;2022-12-10T02:35:05;36.17;;;28.70;;
74344;SDS011;62776;50.518;6.732;2022-12-10T02:38:18;35.28;;;29.23;;
74344;SDS011;62776;50.518;6.732;2022-12-10T02:41:16;29.88;;;26.60;;
74344;SDS011;62776;50.518;6.732;2022-12-10T02:44:24;35.95;;;30.17;;
74344;SDS011;62776;50.518;6.732;2022-12-10T02:47:12;32.65;;;27.63;;
74344;SDS011;62776;50.518;6.732;2022-12-10T02:50:00;36.40;;;31.30;;
74344;SDS011;62776;50.518;6.732;2022-12-10T02:52:47;37.22;;;27.83;;
74344;SDS011;62776;50.518;6.732;2022-12-10T02:55:39;35.90;;;29.13;;
74344;SDS011;62776;50.518;6.732;2022-12-10T03:01:43;32.65;;;27.45;;
74344;SDS011;62776;50.518;6.732;2022-12-10T03:04:46;36.30;;;28.48;;
74344;SDS011;62776;50.518;6.732;2022-12-10T03:07:46;33.20;;;29.50;;
74344;SDS011;62776;50.518;6.732;2022-12-10T03:10:35;37.55;;;29.75;;
74344;SDS011;62776;50.518;6.732;2022-12-10T03:13:29;31.92;;;25.95;;
74344;SDS011;62776;50.518;6.732;2022-12-10T03:16:22;29.60;;;25.48;;
74344;SDS011;62776;50.518;6.732;2022-12-10T03:19:12;31.15;;;28.02;;
74344;SDS011;62776;50.518;6.732;2022-12-10T03:22:01;31.30;;;28.02;;
74344;SDS011;62776;50.518;6.732;2022-12-10T03:24:50;33.38;;;29.75;;
74344;SDS011;62776;50.518;6.732;2022-12-10T03:27:38;28.45;;;24.63;;
74344;SDS011;62776;50.518;6.732;2022-12-10T03:30:26;27.17;;;24.38;;
74344;SDS011;62776;50.518;6.732;2022-12-10T03:33:14;27.10;;;24.30;;
74344;SDS011;62776;50.518;6.732;2022-12-10T03:36:00;23.98;;;21.40;;
74344;SDS011;62776;50.518;6.732;2022-12-10T03:38:49;24.25;;;21.60;;
74344;SDS011;62776;50.518;6.732;2022-12-10T03:41:36;28.27;;;25.27;;
74344;SDS011;62776;50.518;6.732;2022-12-10T03:44:29;32.78;;;28.10;;
74344;SDS011;62776;50.518;6.732;2022-12-10T03:47:16;30.02;;;26.73;;
74344;SDS011;62776;50.518;6.732;2022-12-10T03:50:03;32.00;;;25.80;;
74344;SDS011;62776;50.518;6.732;2022-12-10T03:52:49;33.92;;;26.77;;
74344;SDS011;62776;50.518;6.732;2022-12-10T03:55:35;31.80;;;25.83;;
74344;SDS011;62776;50.518;6.732;2022-12-10T03:58:22;27.23;;;24.30;;
74344;SDS011;62776;50.518;6.732;2022-12-10T04:01:08;37.50;;;28.73;;
74344;SDS011;62776;50.518;6.732;2022-12-10T04:03:55;28.63;;;25.10;;
74344;SDS011;62776;50.518;6.732;2022-12-10T04:06:41;29.75;;;26.55;;
74344;SDS011;62776;50.518;6.732;2022-12-10T04:09:27;32.10;;;26.80;;
74344;SDS011;62776;50.518;6.732;2022-12-10T04:12:13;29.35;;;24.33;;
74344;SDS011;62776;50.518;6.732;2022-12-10T04:14:59;26.88;;;23.98;;
74344;SDS011;62776;50.518;6.732;2022-12-10T04:18:04;26.65;;;23.50;;
74344;SDS011;62776;50.518;6.732;2022-12-10T04:20:50;26.65;;;23.92;;
74344;SDS011;62776;50.518;6.732;2022-12-10T04:23:54;24.92;;;22.38;;
74344;SDS011;62776;50.518;6.732;2022-12-10T04:27:01;26.40;;;23.75;;
74344;SDS011;62776;50.518;6.732;2022-12-10T04:29:50;27.05;;;24.27;;
74344;SDS011;62776;50.518;6.732;2022-12-10T04:32:37;26.95;;;24.25;;
74344;SDS011;62776;50.518;6.732;2022-12-10T04:35:23;27.02;;;23.40;;
74344;SDS011;62776;50.518;6.732;2022-12-10T04:38:09;25.33;;;22.98;;
74344;SDS011;62776;50.518;6.732;2022-12-10T04:40:55;26.65;;;24.05;;
74344;SDS011;62776;50.518;6.732;2022-12-10T04:43:41;25.40;;;21.98;;
74344;SDS011;62776;50.518;6.732;2022-12-10T04:46:27;25.92;;;22.95;;
74344;SDS011;62776;50.518;6.732;2022-12-10T04:49:14;24.92;;;22.42;;
74344;SDS011;62776;50.518;6.732;2022-12-10T04:52:00;27.52;;;24.55;;
74344;SDS011;62776;50.518;6.732;2022-12-10T04:54:46;23.92;;;21.48;;
74344;SDS011;62776;50.518;6.732;2022-12-10T04:57:33;22.45;;;20.05;;
74344;SDS011;62776;50.518;6.732;2022-12-10T05:00:19;28.95;;;25.85;;
74344;SDS011;62776;50.518;6.732;2022-12-10T05:03:05;26.65;;;23.85;;
74344;SDS011;62776;50.518;6.732;2022-12-10T05:05:51;30.38;;;27.02;;
74344;SDS011;62776;50.518;6.732;2022-12-10T05:08:37;31.13;;;28.02;;
74344;SDS011;62776;50.518;6.732;2022-12-10T05:11:26;26.02;;;23.23;;
74344;SDS011;62776;50.518;6.732;2022-12-10T05:14:14;26.77;;;23.50;;
74344;SDS011;62776;50.518;6.732;2022-12-10T05:17:00;26.67;;;23.77;;
74344;SDS011;62776;50.518;6.732;2022-12-10T05:19:46;35.17;;;29.65;;
74344;SDS011;62776;50.518;6.732;2022-12-10T05:22:32;30.88;;;27.38;;
74344;SDS011;62776;50.518;6.732;2022-12-10T05:25:37;41.25;;;32.28;;
74344;SDS011;62776;50.518;6.732;2022-12-10T05:28:38;44.00;;;33.67;;
74344;SDS011;62776;50.518;6.732;2022-12-10T05:31:35;40.72;;;33.65;;
74344;SDS011;62776;50.518;6.732;2022-12-10T05:34:21;35.00;;;29.83;;
74344;SDS011;62776;50.518;6.732;2022-12-10T05:37:07;29.80;;;26.58;;
74344;SDS011;62776;50.518;6.732;2022-12-10T05:39:53;22.98;;;18.40;;
74344;SDS011;62776;50.518;6.732;2022-12-10T05:42:39;26.73;;;23.48;;
74344;SDS011;62776;50.518;6.732;2022-12-10T05:45:25;29.60;;;26.13;;
74344;SDS011;62776;50.518;6.732;2022-12-10T05:48:13;24.20;;;21.65;;
74344;SDS011;62776;50.518;6.732;2022-12-10T05:51:10;27.60;;;24.70;;
74344;SDS011;62776;50.518;6.732;2022-12-10T05:53:58;29.90;;;25.85;;
74344;SDS011;62776;50.518;6.732;2022-12-10T05:56:46;37.42;;;30.02;;
74344;SDS011;62776;50.518;6.732;2022-12-10T05:59:32;42.35;;;31.95;;
74344;SDS011;62776;50.518;6.732;2022-12-10T06:02:18;27.30;;;24.30;;
74344;SDS011;62776;50.518;6.732;2022-12-10T06:05:04;22.27;;;19.88;;
74344;SDS011;62776;50.518;6.732;2022-12-10T06:07:51;26.80;;;21.60;;
74344;SDS011;62776;50.518;6.732;2022-12-10T06:10:37;28.17;;;24.65;;
74344;SDS011;62776;50.518;6.732;2022-12-10T06:13:23;29.92;;;25.20;;
74344;SDS011;62776;50.518;6.732;2022-12-10T06:16:10;25.45;;;22.80;;
74344;SDS011;62776;50.518;6.732;2022-12-10T06:18:57;35.10;;;28.13;;
74344;SDS011;62776;50.518;6.732;2022-12-10T06:21:44;16.48;;;14.65;;
74344;SDS011;62776;50.518;6.732;2022-12-10T06:24:30;14.60;;;13.15;;
74344;SDS011;62776;50.518;6.732;2022-12-10T06:27:16;16.88;;;13.25;;
74344;SDS011;62776;50.518;6.732;2022-12-10T06:30:02;13.05;;;11.75;;
74344;SDS011;62776;50.518;6.732;2022-12-10T06:32:48;15.88;;;14.27;;
74344;SDS011;62776;50.518;6.732;2022-12-10T06:35:34;15.52;;;13.93;;
74344;SDS011;62776;50.518;6.732;2022-12-10T06:38:22;16.02;;;13.95;;
74344;SDS011;62776;50.518;6.732;2022-12-10T06:41:09;17.17;;;15.30;;
74344;SDS011;62776;50.518;6.732;2022-12-10T06:43:57;15.60;;;14.00;;
74344;SDS011;62776;50.518;6.732;2022-12-10T06:46:43;16.73;;;15.13;;
74344;SDS011;62776;50.518;6.732;2022-12-10T06:49:29;16.55;;;14.85;;
74344;SDS011;62776;50.518;6.732;2022-12-10T06:52:15;15.18;;;13.68;;
74344;SDS011;62776;50.518;6.732;2022-12-10T06:55:01;17.35;;;15.75;;
74344;SDS011;62776;50.518;6.732;2022-12-10T06:57:50;16.55;;;14.05;;
74344;SDS011;62776;50.518;6.732;2022-12-10T07:00:37;15.90;;;14.25;;
74344;SDS011;62776;50.518;6.732;2022-12-10T07:03:23;16.13;;;14.25;;
74344;SDS011;62776;50.518;6.732;2022-12-10T07:06:10;16.30;;;13.60;;
74344;SDS011;62776;50.518;6.732;2022-12-10T07:08:57;17.30;;;15.55;;
74344;SDS011;62776;50.518;6.732;2022-12-10T07:11:43;18.73;;;16.83;;
74344;SDS011;62776;50.518;6.732;2022-12-10T07:14:29;16.40;;;14.68;;
74344;SDS011;62776;50.518;6.732;2022-12-10T07:17:15;17.38;;;15.57;;
74344;SDS011;62776;50.518;6.732;2022-12-10T07:20:01;18.00;;;16.23;;
74344;SDS011;62776;50.518;6.732;2022-12-10T07:22:47;18.13;;;16.20;;
74344;SDS011;62776;50.518;6.732;2022-12-10T07:25:33;20.17;;;18.17;;
74344;SDS011;62776;50.518;6.732;2022-12-10T07:28:20;18.50;;;16.80;;
74344;SDS011;62776;50.518;6.732;2022-12-10T07:31:07;16.35;;;14.75;;
74344;SDS011;62776;50.518;6.732;2022-12-10T07:33:54;15.88;;;14.27;;
74344;SDS011;62776;50.518;6.732;2022-12-10T07:36:43;16.48;;;14.82;;
74344;SDS011;62776;50.518;6.732;2022-12-10T07:39:29;16.38;;;13.98;;
74344;SDS011;62776;50.518;6.732;2022-12-10T07:42:15;13.82;;;12.43;;
74344;SDS011;62776;50.518;6.732;2022-12-10T07:45:01;17.17;;;15.38;;
74344;SDS011;62776;50.518;6.732;2022-12-10T07:47:48;16.45;;;14.85;;
74344;SDS011;62776;50.518;6.732;2022-12-10T07:50:34;17.27;;;15.23;;
74344;SDS011;62776;50.518;6.732;2022-12-10T07:53:20;17.00;;;15.20;;
74344;SDS011;62776;50.518;6.732;2022-12-10T07:56:07;17.27;;;15.52;;
74344;SDS011;62776;50.518;6.732;2022-12-10T07:58:53;17.75;;;15.85;;
74344;SDS011;62776;50.518;6.732;2022-12-10T08:01:39;17.02;;;15.52;;
74344;SDS011;62776;50.518;6.732;2022-12-10T08:04:27;19.70;;;16.90;;
74344;SDS011;62776;50.518;6.732;2022-12-10T08:07:14;16.75;;;15.05;;
74344;SDS011;62776;50.518;6.732;2022-12-10T08:10:01;17.60;;;15.02;;
74344;SDS011;62776;50.518;6.732;2022-12-10T08:12:47;16.25;;;14.57;;
74344;SDS011;62776;50.518;6.732;2022-12-10T08:15:33;15.23;;;13.73;;
74344;SDS011;62776;50.518;6.732;2022-12-10T08:18:20;14.73;;;13.35;;
74344;SDS011;62776;50.518;6.732;2022-12-10T08:21:10;17.67;;;15.85;;
74344;SDS011;62776;50.518;6.732;2022-12-10T08:23:58;15.93;;;14.27;;
74344;SDS011;62776;50.518;6.732;2022-12-10T08:26:45;15.85;;;14.25;;
74344;SDS011;62776;50.518;6.732;2022-12-10T08:29:31;17.95;;;16.35;;
74344;SDS011;62776;50.518;6.732;2022-12-10T08:32:17;16.92;;;15.43;;
74344;SDS011;62776;50.518;6.732;2022-12-10T08:35:03;17.58;;;15.98;;
74344;SDS011;62776;50.518;6.732;2022-12-10T08:37:49;15.43;;;14.00;;
74344;SDS011;62776;50.518;6.732;2022-12-10T08:40:38;16.05;;;14.55;;
74344;SDS011;62776;50.518;6.732;2022-12-10T08:43:25;18.00;;;16.30;;
74344;SDS011;62776;50.518;6.732;2022-12-10T08:46:11;15.18;;;13.68;;
74344;SDS011;62776;50.518;6.732;2022-12-10T08:48:58;15.88;;;14.27;;
74344;SDS011;62776;50.518;6.732;2022-12-10T08:51:45;15.00;;;13.68;;
74344;SDS011;62776;50.518;6.732;2022-12-10T08:54:31;16.02;;;14.63;;
74344;SDS011;62776;50.518;6.732;2022-12-10T08:57:18;18.65;;;17.05;;
74344;SDS011;62776;50.518;6.732;2022-12-10T09:00:04;18.80;;;17.05;;
74344;SDS011;62776;50.518;6.732;2022-12-10T09:02:51;18.33;;;16.42;;
74344;SDS011;62776;50.518;6.732;2022-12-10T09:05:37;15.88;;;14.30;;
74344;SDS011;62776;50.518;6.732;2022-12-10T09:08:23;16.80;;;15.10;;
74344;SDS011;62776;50.518;6.732;2022-12-10T09:11:19;16.20;;;14.73;;
74344;SDS011;62776;50.518;6.732;2022-12-10T09:14:08;17.10;;;15.48;;
74344;SDS011;62776;50.518;6.732;2022-12-10T09:16:54;15.73;;;14.23;;
74344;SDS011;62776;50.518;6.732;2022-12-10T09:19:40;14.77;;;13.57;;
74344;SDS011;62776;50.518;6.732;2022-12-10T09:22:26;15.45;;;14.05;;
74344;SDS011;62776;50.518;6.732;2022-12-10T09:25:13;16.88;;;15.38;;
74344;SDS011;62776;50.518;6.732;2022-12-10T09:28:00;14.73;;;13.43;;
74344;SDS011;62776;50.518;6.732;2022-12-10T09:30:54;15.10;;;13.52;;
74344;SDS011;62776;50.518;6.732;2022-12-10T09:33:41;15.18;;;13.77;;
74344;SDS011;62776;50.518;6.732;2022-12-10T09:36:27;14.40;;;13.07;;
74344;SDS011;62776;50.518;6.732;2022-12-10T09:39:14;16.25;;;14.75;;
74344;SDS011;62776;50.518;6.732;2022-12-10T09:42:07;15.63;;;14.10;;
74344;SDS011;62776;50.518;6.732;2022-12-10T09:45:37;14.88;;;13.45;;
74344;SDS011;62776;50.518;6.732;2022-12-10T09:51:53;17.83;;;16.13;;
74344;SDS011;62776;50.518;6.732;2022-12-10T09:54:54;14.05;;;12.82;;
74344;SDS011;62776;50.518;6.732;2022-12-10T09:57:49;13.45;;;12.25;;
74344;SDS011;62776;50.518;6.732;2022-12-10T10:00:40;13.98;;;12.77;;
74344;SDS011;62776;50.518;6.732;2022-12-10T10:03:37;20.10;;;18.30;;
74344;SDS011;62776;50.518;6.732;2022-12-10T10:06:26;14.45;;;13.05;;
74344;SDS011;62776;50.518;6.732;2022-12-10T10:09:14;15.75;;;14.35;;
74344;SDS011;62776;50.518;6.732;2022-12-10T10:12:00;12.75;;;11.55;;
74344;SDS011;62776;50.518;6.732;2022-12-10T10:14:46;13.60;;;12.40;;
74344;SDS011;62776;50.518;6.732;2022-12-10T10:17:36;15.23;;;13.68;;
74344;SDS011;62776;50.518;6.732;2022-12-10T10:20:23;15.48;;;13.90;;
74344;SDS011;62776;50.518;6.732;2022-12-10T10:23:11;19.70;;;17.60;;
74344;SDS011;62776;50.518;6.732;2022-12-10T10:26:00;17.75;;;16.02;;
74344;SDS011;62776;50.518;6.732;2022-12-10T10:28:46;19.77;;;17.67;;
74344;SDS011;62776;50.518;6.732;2022-12-10T10:31:34;17.15;;;15.43;;
74344;SDS011;62776;50.518;6.732;2022-12-10T10:34:23;18.10;;;16.30;;
74344;SDS011;62776;50.518;6.732;2022-12-10T10:37:20;21.30;;;19.02;;
74344;SDS011;62776;50.518;6.732;2022-12-10T10:40:25;18.05;;;15.23;;
74344;SDS011;62776;50.518;6.732;2022-12-10T10:43:18;16.85;;;15.05;;
74344;SDS011;62776;50.518;6.732;2022-12-10T10:46:15;15.60;;;14.10;;
74344;SDS011;62776;50.518;6.732;2022-12-10T10:52:13;15.43;;;13.82;;
74344;SDS011;62776;50.518;6.732;2022-12-10T10:55:02;16.08;;;14.48;;
74344;SDS011;62776;50.518;6.732;2022-12-10T10:57:48;16.08;;;14.45;;
74344;SDS011;62776;50.518;6.732;2022-12-10T11:00:37;17.40;;;15.80;;
74344;SDS011;62776;50.518;6.732;2022-12-10T11:03:23;16.52;;;14.95;;
74344;SDS011;62776;50.518;6.732;2022-12-10T11:06:11;17.13;;;15.45;;
74344;SDS011;62776;50.518;6.732;2022-12-10T11:08:58;14.30;;;13.05;;
74344;SDS011;62776;50.518;6.732;2022-12-10T11:11:44;15.45;;;14.10;;
74344;SDS011;62776;50.518;6.732;2022-12-10T11:14:40;14.93;;;13.52;;
74344;SDS011;62776;50.518;6.732;2022-12-10T11:17:29;17.33;;;15.65;;
74344;SDS011;62776;50.518;6.732;2022-12-10T11:20:17;16.65;;;15.07;;
74344;SDS011;62776;50.518;6.732;2022-12-10T11:23:10;15.18;;;13.77;;
74344;SDS011;62776;50.518;6.732;2022-12-10T11:26:03;14.50;;;13.00;;
74344;SDS011;62776;50.518;6.732;2022-12-10T11:35:41;13.93;;;12.63;;
74344;SDS011;62776;50.518;6.732;2022-12-10T11:42:03;15.05;;;13.55;;
74344;SDS011;62776;50.518;6.732;2022-12-10T11:51:32;13.82;;;12.63;;
74344;SDS011;62776;50.518;6.732;2022-12-10T11:54:29;14.98;;;13.57;;
74344;SDS011;62776;50.518;6.732;2022-12-10T12:00:29;13.25;;;12.13;;
74344;SDS011;62776;50.518;6.732;2022-12-10T12:03:40;14.70;;;13.38;;
74344;SDS011;62776;50.518;6.732;2022-12-10T12:09:50;15.48;;;14.15;;
74344;SDS011;62776;50.518;6.732;2022-12-10T12:12:45;17.55;;;15.85;;
74344;SDS011;62776;50.518;6.732;2022-12-10T12:15:44;15.77;;;14.32;;
74344;SDS011;62776;50.518;6.732;2022-12-10T12:21:47;18.42;;;16.73;;
74344;SDS011;62776;50.518;6.732;2022-12-10T12:24:35;16.30;;;14.80;;
74344;SDS011;62776;50.518;6.732;2022-12-10T12:30:17;16.73;;;15.23;;
74344;SDS011;62776;50.518;6.732;2022-12-10T12:33:24;17.35;;;15.75;;
74344;SDS011;62776;50.518;6.732;2022-12-10T12:36:26;16.83;;;15.23;;
74344;SDS011;62776;50.518;6.732;2022-12-10T12:39:59;17.48;;;15.88;;
74344;SDS011;62776;50.518;6.732;2022-12-10T12:42:38;16.80;;;15.20;;
74344;SDS011;62776;50.518;6.732;2022-12-10T12:45:42;16.65;;;15.05;;
74344;SDS011;62776;50.518;6.732;2022-12-10T12:51:29;17.48;;;15.82;;
74344;SDS011;62776;50.518;6.732;2022-12-10T12:54:31;16.17;;;14.73;;
74344;SDS011;62776;50.518;6.732;2022-12-10T12:57:20;14.70;;;13.38;;
74344;SDS011;62776;50.518;6.732;2022-12-10T13:00:34;16.67;;;15.00;;
74344;SDS011;62776;50.518;6.732;2022-12-10T13:06:21;14.98;;;13.65;;
74344;SDS011;62776;50.518;6.732;2022-12-10T13:14:55;19.98;;;16.92;;
74344;SDS011;62776;50.518;6.732;2022-12-10T13:18:03;16.47;;;14.83;;
74344;SDS011;62776;50.518;6.732;2022-12-10T13:21:26;13.45;;;12.25;;
74344;SDS011;62776;50.518;6.732;2022-12-10T13:24:15;12.90;;;11.73;;
74344;SDS011;62776;50.518;6.732;2022-12-10T13:33:03;15.15;;;13.75;;
74344;SDS011;62776;50.518;6.732;2022-12-10T13:35:57;18.13;;;16.45;;
74344;SDS011;62776;50.518;6.732;2022-12-10T13:38:54;17.95;;;16.25;;
74344;SDS011;62776;50.518;6.732;2022-12-10T13:48:30;17.73;;;16.13;;
74344;SDS011;62776;50.518;6.732;2022-12-10T13:57:24;18.58;;;16.77;;
74344;SDS011;62776;50.518;6.732;2022-12-10T14:00:49;16.90;;;15.30;;
74344;SDS011;62776;50.518;6.732;2022-12-10T14:03:41;18.95;;;17.23;;
74344;SDS011;62776;50.518;6.732;2022-12-10T14:06:40;16.85;;;15.25;;
74344;SDS011;62776;50.518;6.732;2022-12-10T14:09:29;18.02;;;15.13;;
74344;SDS011;62776;50.518;6.732;2022-12-10T14:12:26;17.95;;;16.25;;
74344;SDS011;62776;50.518;6.732;2022-12-10T14:15:21;16.70;;;15.10;;
74344;SDS011;62776;50.518;6.732;2022-12-10T14:18:10;18.83;;;17.13;;
74344;SDS011;62776;50.518;6.732;2022-12-10T14:20:58;16.98;;;15.27;;
74344;SDS011;62776;50.518;6.732;2022-12-10T14:23:50;17.88;;;16.25;;
74344;SDS011;62776;50.518;6.732;2022-12-10T14:26:37;17.25;;;15.55;;
74344;SDS011;62776;50.518;6.732;2022-12-10T14:29:23;16.02;;;14.43;;
74344;SDS011;62776;50.518;6.732;2022-12-10T14:32:15;16.90;;;15.23;;
74344;SDS011;62776;50.518;6.732;2022-12-10T14:35:06;17.15;;;15.45;;
74344;SDS011;62776;50.518;6.732;2022-12-10T14:37:57;15.68;;;14.23;;
74344;SDS011;62776;50.518;6.732;2022-12-10T14:40:44;17.27;;;15.68;;
74344;SDS011;62776;50.518;6.732;2022-12-10T14:43:37;16.92;;;15.15;;
74344;SDS011;62776;50.518;6.732;2022-12-10T14:46:27;16.95;;;15.38;;
74344;SDS011;62776;50.518;6.732;2022-12-10T14:49:23;16.73;;;15.23;;
74344;SDS011;62776;50.518;6.732;2022-12-10T14:52:13;18.10;;;16.35;;
74344;SDS011;62776;50.518;6.732;2022-12-10T14:55:02;18.00;;;16.35;;
74344;SDS011;62776;50.518;6.732;2022-12-10T14:57:51;15.68;;;14.07;;
74344;SDS011;62776;50.518;6.732;2022-12-10T15:00:41;18.95;;;15.63;;
74344;SDS011;62776;50.518;6.732;2022-12-10T15:03:29;17.42;;;15.80;;
74344;SDS011;62776;50.518;6.732;2022-12-10T15:06:26;16.98;;;15.32;;
74344;SDS011;62776;50.518;6.732;2022-12-10T15:09:21;19.85;;;17.88;;
74344;SDS011;62776;50.518;6.732;2022-12-10T15:12:20;17.75;;;16.05;;
74344;SDS011;62776;50.518;6.732;2022-12-10T15:15:42;19.95;;;17.98;;
74344;SDS011;62776;50.518;6.732;2022-12-10T15:18:28;18.38;;;16.63;;
74344;SDS011;62776;50.518;6.732;2022-12-10T15:21:22;16.95;;;15.45;;
74344;SDS011;62776;50.518;6.732;2022-12-10T15:24:14;18.05;;;16.35;;
74344;SDS011;62776;50.518;6.732;2022-12-10T15:27:13;16.65;;;14.95;;
74344;SDS011;62776;50.518;6.732;2022-12-10T15:30:20;18.85;;;17.05;;
74344;SDS011;62776;50.518;6.732;2022-12-10T15:33:23;17.80;;;15.80;;
74344;SDS011;62776;50.518;6.732;2022-12-10T15:39:19;18.13;;;16.25;;
74344;SDS011;62776;50.518;6.732;2022-12-10T15:42:07;21.67;;;19.67;;
74344;SDS011;62776;50.518;6.732;2022-12-10T15:45:16;22.67;;;20.67;;
74344;SDS011;62776;50.518;6.732;2022-12-10T15:48:03;29.33;;;26.45;;
74344;SDS011;62776;50.518;6.732;2022-12-10T15:50:55;29.00;;;26.20;;
74344;SDS011;62776;50.518;6.732;2022-12-10T15:53:41;26.55;;;24.15;;
74344;SDS011;62776;50.518;6.732;2022-12-10T15:56:28;21.48;;;19.45;;
74344;SDS011;62776;50.518;6.732;2022-12-10T15:59:14;24.00;;;21.58;;
74344;SDS011;62776;50.518;6.732;2022-12-10T16:02:00;20.05;;;18.15;;
74344;SDS011;62776;50.518;6.732;2022-12-10T16:04:48;20.13;;;18.23;;
74344;SDS011;62776;50.518;6.732;2022-12-10T16:07:34;21.15;;;19.25;;
74344;SDS011;62776;50.518;6.732;2022-12-10T16:10:20;21.05;;;19.05;;
74344;SDS011;62776;50.518;6.732;2022-12-10T16:13:13;19.98;;;18.20;;
74344;SDS011;62776;50.518;6.732;2022-12-10T16:16:06;20.48;;;18.58;;
74344;SDS011;62776;50.518;6.732;2022-12-10T16:18:53;19.10;;;17.23;;
74344;SDS011;62776;50.518;6.732;2022-12-10T16:21:40;20.10;;;18.10;;
74344;SDS011;62776;50.518;6.732;2022-12-10T16:24:26;21.15;;;19.05;;
74344;SDS011;62776;50.518;6.732;2022-12-10T16:27:12;19.55;;;17.75;;
74344;SDS011;62776;50.518;6.732;2022-12-10T16:30:00;21.77;;;19.65;;
74344;SDS011;62776;50.518;6.732;2022-12-10T16:32:46;22.30;;;20.08;;
74344;SDS011;62776;50.518;6.732;2022-12-10T16:35:32;21.65;;;19.45;;
74344;SDS011;62776;50.518;6.732;2022-12-10T16:38:19;22.90;;;20.52;;
74344;SDS011;62776;50.518;6.732;2022-12-10T16:41:15;24.83;;;22.45;;
74344;SDS011;62776;50.518;6.732;2022-12-10T16:44:09;33.22;;;29.75;;
74344;SDS011;62776;50.518;6.732;2022-12-10T16:46:55;31.15;;;28.13;;
74344;SDS011;62776;50.518;6.732;2022-12-10T16:49:42;25.20;;;22.90;;
74344;SDS011;62776;50.518;6.732;2022-12-10T16:52:28;27.65;;;25.05;;
74344;SDS011;62776;50.518;6.732;2022-12-10T16:55:16;24.85;;;22.25;;
74344;SDS011;62776;50.518;6.732;2022-12-10T16:58:07;21.25;;;19.35;;
74344;SDS011;62776;50.518;6.732;2022-12-10T17:00:59;23.50;;;21.20;;
74344;SDS011;62776;50.518;6.732;2022-12-10T17:03:46;21.55;;;19.63;;
74344;SDS011;62776;50.518;6.732;2022-12-10T17:06:32;22.40;;;20.30;;
74344;SDS011;62776;50.518;6.732;2022-12-10T17:09:18;22.33;;;20.17;;
74344;SDS011;62776;50.518;6.732;2022-12-10T17:12:05;20.92;;;19.02;;
74344;SDS011;62776;50.518;6.732;2022-12-10T17:14:51;21.02;;;19.13;;
74344;SDS011;62776;50.518;6.732;2022-12-10T17:17:38;20.70;;;18.70;;
74344;SDS011;62776;50.518;6.732;2022-12-10T17:20:24;21.23;;;19.23;;
74344;SDS011;62776;50.518;6.732;2022-12-10T17:23:11;22.55;;;20.35;;
74344;SDS011;62776;50.518;6.732;2022-12-10T17:25:57;24.48;;;21.98;;
74344;SDS011;62776;50.518;6.732;2022-12-10T17:28:46;23.63;;;21.42;;
74344;SDS011;62776;50.518;6.732;2022-12-10T17:31:32;23.73;;;21.42;;
74344;SDS011;62776;50.518;6.732;2022-12-10T17:34:20;25.38;;;23.00;;
74344;SDS011;62776;50.518;6.732;2022-12-10T17:37:12;23.75;;;21.48;;
74344;SDS011;62776;50.518;6.732;2022-12-10T17:40:00;22.48;;;20.27;;
74344;SDS011;62776;50.518;6.732;2022-12-10T17:42:48;26.52;;;22.45;;
74344;SDS011;62776;50.518;6.732;2022-12-10T17:45:35;25.85;;;23.23;;
74344;SDS011;62776;50.518;6.732;2022-12-10T17:48:22;26.67;;;23.90;;
74344;SDS011;62776;50.518;6.732;2022-12-10T17:51:08;26.50;;;24.10;;
74344;SDS011;62776;50.518;6.732;2022-12-10T17:53:57;24.05;;;21.63;;
74344;SDS011;62776;50.518;6.732;2022-12-10T17:56:43;27.63;;;24.75;;
74344;SDS011;62776;50.518;6.732;2022-12-10T17:59:29;28.42;;;25.35;;
74344;SDS011;62776;50.518;6.732;2022-12-10T18:02:16;32.00;;;28.73;;
74344;SDS011;62776;50.518;6.732;2022-12-10T18:05:03;24.67;;;22.10;;